sensor_id;sensor_type;location;lat;lon;timestamp;pressure;altitude;pressure_sealevel;temperature;humidity
11339;BME280;5724;42.684;23.252;2023-05-11T00:01:41;94510.75;;;8.83;90.01
11339;BME280;5724;42.684;23.252;2023-05-11T00:04:07;94511.31;;;8.88;89.54
11339;BME280;5724;42.684;23.252;2023-05-11T00:06:33;94492.84;;;8.70;89.38
11339;BME280;5724;42.684;23.252;2023-05-11T00:08:58;94511.53;;;8.83;88.60
11339;BME280;5724;42.684;23.252;2023-05-11T00:11:23;94512.44;;;8.87;88.84
11339;BME280;5724;42.684;23.252;2023-05-11T00:13:49;94522.56;;;8.75;89.29
11339;BME280;5724;42.684;23.252;2023-05-11T00:16:15;94506.56;;;8.73;88.93
11339;BME280;5724;42.684;23.252;2023-05-11T00:18:40;94513.69;;;8.78;88.67
11339;BME280;5724;42.684;23.252;2023-05-11T00:21:06;94514.31;;;8.59;89.08
11339;BME280;5724;42.684;23.252;2023-05-11T00:23:32;94500.91;;;8.54;89.15
11339;BME280;5724;42.684;23.252;2023-05-11T00:25:57;94516.22;;;8.58;89.66
11339;BME280;5724;42.684;23.252;2023-05-11T00:28:22;94509.31;;;8.61;88.96
11339;BME280;5724;42.684;23.252;2023-05-11T00:30:48;94521.22;;;8.69;89.08
11339;BME280;5724;42.684;23.252;2023-05-11T00:33:13;94516.44;;;8.66;89.54
11339;BME280;5724;42.684;23.252;2023-05-11T00:35:39;94509.41;;;8.65;89.82
11339;BME280;5724;42.684;23.252;2023-05-11T00:38:05;94517.13;;;8.63;89.59
11339;BME280;5724;42.684;23.252;2023-05-11T00:40:31;94514.84;;;8.65;89.94
11339;BME280;5724;42.684;23.252;2023-05-11T00:42:57;94515.78;;;8.69;89.76
11339;BME280;5724;42.684;23.252;2023-05-11T00:45:23;94521.53;;;8.67;89.92
11339;BME280;5724;42.684;23.252;2023-05-11T00:47:49;94520.31;;;8.52;89.80
11339;BME280;5724;42.684;23.252;2023-05-11T00:50:15;94511.56;;;8.47;90.68
11339;BME280;5724;42.684;23.252;2023-05-11T00:52:43;94507.38;;;8.62;89.98
11339;BME280;5724;42.684;23.252;2023-05-11T00:55:10;94507.41;;;8.49;90.60
11339;BME280;5724;42.684;23.252;2023-05-11T00:57:37;94501.81;;;8.58;90.60
11339;BME280;5724;42.684;23.252;2023-05-11T01:00:04;94513.63;;;8.50;90.51
11339;BME280;5724;42.684;23.252;2023-05-11T01:02:30;94506.81;;;8.56;90.42
11339;BME280;5724;42.684;23.252;2023-05-11T01:04:56;94521.66;;;8.58;90.24
11339;BME280;5724;42.684;23.252;2023-05-11T01:07:27;94505.53;;;8.66;90.01
11339;BME280;5724;42.684;23.252;2023-05-11T01:10:05;94520.06;;;8.57;90.30
11339;BME280;5724;42.684;23.252;2023-05-11T01:15:51;94518.63;;;8.36;91.32
11339;BME280;5724;42.684;23.252;2023-05-11T01:20:45;94517.81;;;8.35;91.70
11339;BME280;5724;42.684;23.252;2023-05-11T01:29:06;94522.09;;;8.24;91.99
11339;BME280;5724;42.684;23.252;2023-05-11T01:31:33;94520.38;;;8.19;92.22
11339;BME280;5724;42.684;23.252;2023-05-11T01:34:14;94522.09;;;8.24;92.20
11339;BME280;5724;42.684;23.252;2023-05-11T01:36:50;94510.28;;;8.08;92.98
11339;BME280;5724;42.684;23.252;2023-05-11T01:39:19;94517.53;;;8.03;92.20
11339;BME280;5724;42.684;23.252;2023-05-11T01:41:50;94508.00;;;8.10;92.25
11339;BME280;5724;42.684;23.252;2023-05-11T01:44:18;94509.63;;;8.11;92.17
11339;BME280;5724;42.684;23.252;2023-05-11T01:46:46;94522.31;;;8.07;91.84
11339;BME280;5724;42.684;23.252;2023-05-11T01:49:13;94529.31;;;8.08;91.85
11339;BME280;5724;42.684;23.252;2023-05-11T01:51:41;94524.47;;;8.13;91.11
11339;BME280;5724;42.684;23.252;2023-05-11T01:54:08;94527.75;;;8.19;90.91
11339;BME280;5724;42.684;23.252;2023-05-11T01:56:37;94528.00;;;8.14;90.98
11339;BME280;5724;42.684;23.252;2023-05-11T01:59:03;94523.44;;;8.06;91.08
11339;BME280;5724;42.684;23.252;2023-05-11T02:01:29;94523.00;;;8.16;91.24
11339;BME280;5724;42.684;23.252;2023-05-11T02:03:57;94516.97;;;8.10;90.95
11339;BME280;5724;42.684;23.252;2023-05-11T02:06:25;94519.91;;;8.05;90.82
11339;BME280;5724;42.684;23.252;2023-05-11T02:08:53;94510.72;;;7.97;90.83
11339;BME280;5724;42.684;23.252;2023-05-11T02:11:21;94511.75;;;8.05;90.09
11339;BME280;5724;42.684;23.252;2023-05-11T02:13:49;94517.66;;;8.07;90.26
11339;BME280;5724;42.684;23.252;2023-05-11T02:16:17;94498.25;;;7.96;90.12
11339;BME280;5724;42.684;23.252;2023-05-11T02:18:44;94520.91;;;8.00;90.32
11339;BME280;5724;42.684;23.252;2023-05-11T02:21:10;94517.88;;;8.02;89.94
11339;BME280;5724;42.684;23.252;2023-05-11T02:23:37;94513.44;;;7.97;89.84
11339;BME280;5724;42.684;23.252;2023-05-11T02:26:04;94502.47;;;8.06;88.94
11339;BME280;5724;42.684;23.252;2023-05-11T02:28:30;94511.66;;;8.01;89.03
11339;BME280;5724;42.684;23.252;2023-05-11T02:31:00;94508.25;;;8.04;88.33
11339;BME280;5724;42.684;23.252;2023-05-11T02:33:34;94509.16;;;8.09;88.22
11339;BME280;5724;42.684;23.252;2023-05-11T02:36:01;94519.34;;;7.99;87.96
11339;BME280;5724;42.684;23.252;2023-05-11T02:38:37;94511.25;;;7.91;88.44
11339;BME280;5724;42.684;23.252;2023-05-11T02:41:07;94507.91;;;7.94;87.80
11339;BME280;5724;42.684;23.252;2023-05-11T02:43:38;94508.88;;;7.89;88.71
11339;BME280;5724;42.684;23.252;2023-05-11T02:46:13;94507.09;;;7.93;87.90
11339;BME280;5724;42.684;23.252;2023-05-11T02:48:42;94516.84;;;7.94;87.83
11339;BME280;5724;42.684;23.252;2023-05-11T02:51:11;94514.69;;;7.88;87.99
11339;BME280;5724;42.684;23.252;2023-05-11T02:53:39;94505.28;;;7.85;88.29
11339;BME280;5724;42.684;23.252;2023-05-11T02:56:06;94497.78;;;7.82;87.71
11339;BME280;5724;42.684;23.252;2023-05-11T02:58:32;94513.53;;;7.89;87.89
11339;BME280;5724;42.684;23.252;2023-05-11T03:00:58;94511.38;;;7.82;88.05
11339;BME280;5724;42.684;23.252;2023-05-11T03:03:24;94510.03;;;7.88;87.83
11339;BME280;5724;42.684;23.252;2023-05-11T03:05:50;94508.44;;;7.87;87.72
11339;BME280;5724;42.684;23.252;2023-05-11T03:08:16;94509.47;;;7.83;87.67
11339;BME280;5724;42.684;23.252;2023-05-11T03:10:42;94510.97;;;7.92;87.34
11339;BME280;5724;42.684;23.252;2023-05-11T03:13:08;94512.38;;;7.78;87.68
11339;BME280;5724;42.684;23.252;2023-05-11T03:15:34;94515.66;;;7.71;88.62
11339;BME280;5724;42.684;23.252;2023-05-11T03:18:02;94512.63;;;7.72;88.19
11339;BME280;5724;42.684;23.252;2023-05-11T03:20:29;94510.09;;;7.67;88.57
11339;BME280;5724;42.684;23.252;2023-05-11T03:22:56;94517.22;;;7.72;88.56
11339;BME280;5724;42.684;23.252;2023-05-11T03:25:22;94524.50;;;7.80;88.01
11339;BME280;5724;42.684;23.252;2023-05-11T03:27:49;94527.47;;;7.75;88.02
11339;BME280;5724;42.684;23.252;2023-05-11T03:30:16;94513.31;;;7.82;87.79
11339;BME280;5724;42.684;23.252;2023-05-11T03:32:42;94515.00;;;7.74;88.65
11339;BME280;5724;42.684;23.252;2023-05-11T03:35:07;94527.91;;;7.77;88.64
11339;BME280;5724;42.684;23.252;2023-05-11T03:37:35;94526.91;;;7.82;88.39
11339;BME280;5724;42.684;23.252;2023-05-11T03:40:02;94530.53;;;7.73;88.72
11339;BME280;5724;42.684;23.252;2023-05-11T03:42:29;94527.81;;;7.73;89.04
11339;BME280;5724;42.684;23.252;2023-05-11T03:44:56;94523.50;;;7.72;88.99
11339;BME280;5724;42.684;23.252;2023-05-11T03:47:25;94529.28;;;7.83;88.80
11339;BME280;5724;42.684;23.252;2023-05-11T03:49:52;94532.91;;;7.87;88.42
11339;BME280;5724;42.684;23.252;2023-05-11T03:52:19;94531.00;;;7.88;88.35
11339;BME280;5724;42.684;23.252;2023-05-11T03:54:45;94537.22;;;7.88;88.72
11339;BME280;5724;42.684;23.252;2023-05-11T03:57:11;94536.06;;;7.77;88.80
11339;BME280;5724;42.684;23.252;2023-05-11T03:59:38;94541.50;;;7.77;88.77
11339;BME280;5724;42.684;23.252;2023-05-11T04:02:04;94523.25;;;7.78;88.81
11339;BME280;5724;42.684;23.252;2023-05-11T04:04:30;94529.94;;;7.80;88.47
11339;BME280;5724;42.684;23.252;2023-05-11T04:06:56;94538.91;;;7.81;88.73
11339;BME280;5724;42.684;23.252;2023-05-11T04:09:22;94541.41;;;7.73;89.36
11339;BME280;5724;42.684;23.252;2023-05-11T04:11:48;94539.47;;;7.74;89.12
11339;BME280;5724;42.684;23.252;2023-05-11T04:14:14;94557.22;;;7.71;89.66
11339;BME280;5724;42.684;23.252;2023-05-11T04:16:39;94547.16;;;7.72;89.21
11339;BME280;5724;42.684;23.252;2023-05-11T04:19:05;94549.06;;;7.71;89.85
11339;BME280;5724;42.684;23.252;2023-05-11T04:21:31;94538.53;;;7.70;90.19
11339;BME280;5724;42.684;23.252;2023-05-11T04:23:57;94550.22;;;7.70;89.90
11339;BME280;5724;42.684;23.252;2023-05-11T04:26:23;94549.66;;;7.77;90.34
11339;BME280;5724;42.684;23.252;2023-05-11T04:28:48;94551.41;;;7.82;90.08
11339;BME280;5724;42.684;23.252;2023-05-11T04:31:14;94549.56;;;7.73;90.89
11339;BME280;5724;42.684;23.252;2023-05-11T04:33:40;94553.59;;;7.67;91.18
11339;BME280;5724;42.684;23.252;2023-05-11T04:36:05;94553.94;;;7.66;91.42
11339;BME280;5724;42.684;23.252;2023-05-11T04:38:31;94558.50;;;7.74;90.86
11339;BME280;5724;42.684;23.252;2023-05-11T04:40:56;94545.91;;;7.69;91.48
11339;BME280;5724;42.684;23.252;2023-05-11T04:43:22;94553.50;;;7.64;91.65
11339;BME280;5724;42.684;23.252;2023-05-11T04:45:48;94550.81;;;7.76;91.48
11339;BME280;5724;42.684;23.252;2023-05-11T04:48:14;94560.09;;;7.75;91.73
11339;BME280;5724;42.684;23.252;2023-05-11T04:50:41;94568.72;;;7.77;91.11
11339;BME280;5724;42.684;23.252;2023-05-11T04:53:07;94557.50;;;7.79;91.68
11339;BME280;5724;42.684;23.252;2023-05-11T04:55:32;94566.53;;;7.70;92.34
11339;BME280;5724;42.684;23.252;2023-05-11T04:57:58;94574.56;;;7.67;92.86
11339;BME280;5724;42.684;23.252;2023-05-11T05:00:23;94560.97;;;7.67;92.87
11339;BME280;5724;42.684;23.252;2023-05-11T05:02:49;94573.09;;;7.69;92.63
11339;BME280;5724;42.684;23.252;2023-05-11T05:05:17;94580.63;;;7.85;92.58
11339;BME280;5724;42.684;23.252;2023-05-11T05:07:44;94575.75;;;7.90;92.51
11339;BME280;5724;42.684;23.252;2023-05-11T05:10:09;94575.75;;;7.90;92.03
11339;BME280;5724;42.684;23.252;2023-05-11T05:12:39;94574.84;;;7.86;92.58
11339;BME280;5724;42.684;23.252;2023-05-11T05:15:06;94590.75;;;7.96;92.21
11339;BME280;5724;42.684;23.252;2023-05-11T05:17:32;94584.63;;;7.99;92.20
11339;BME280;5724;42.684;23.252;2023-05-11T05:19:57;94585.75;;;7.86;93.60
11339;BME280;5724;42.684;23.252;2023-05-11T05:22:24;94581.88;;;7.87;93.24
11339;BME280;5724;42.684;23.252;2023-05-11T05:24:50;94578.03;;;7.88;93.58
11339;BME280;5724;42.684;23.252;2023-05-11T05:27:16;94584.88;;;7.94;93.36
11339;BME280;5724;42.684;23.252;2023-05-11T05:29:41;94594.38;;;8.00;93.48
11339;BME280;5724;42.684;23.252;2023-05-11T05:32:07;94587.66;;;7.86;93.91
11339;BME280;5724;42.684;23.252;2023-05-11T05:34:32;94588.63;;;8.02;93.15
11339;BME280;5724;42.684;23.252;2023-05-11T05:36:57;94592.94;;;8.03;93.58
11339;BME280;5724;42.684;23.252;2023-05-11T05:39:23;94588.06;;;8.09;93.84
11339;BME280;5724;42.684;23.252;2023-05-11T05:41:48;94589.91;;;8.17;92.80
11339;BME280;5724;42.684;23.252;2023-05-11T05:44:14;94591.94;;;8.20;92.93
11339;BME280;5724;42.684;23.252;2023-05-11T05:46:39;94590.69;;;8.29;92.20
11339;BME280;5724;42.684;23.252;2023-05-11T05:49:05;94579.28;;;8.36;91.33
11339;BME280;5724;42.684;23.252;2023-05-11T05:51:30;94585.59;;;8.28;91.57
11339;BME280;5724;42.684;23.252;2023-05-11T05:53:57;94588.41;;;8.52;91.32
11339;BME280;5724;42.684;23.252;2023-05-11T05:56:22;94593.75;;;8.61;90.26
11339;BME280;5724;42.684;23.252;2023-05-11T05:58:48;94593.84;;;8.65;89.83
11339;BME280;5724;42.684;23.252;2023-05-11T06:01:13;94598.06;;;8.62;89.17
11339;BME280;5724;42.684;23.252;2023-05-11T06:03:38;94608.25;;;8.77;89.01
11339;BME280;5724;42.684;23.252;2023-05-11T06:06:05;94597.72;;;8.64;88.98
11339;BME280;5724;42.684;23.252;2023-05-11T06:08:31;94616.09;;;8.67;89.80
11339;BME280;5724;42.684;23.252;2023-05-11T06:10:57;94612.69;;;8.70;89.84
11339;BME280;5724;42.684;23.252;2023-05-11T06:13:22;94624.03;;;8.84;88.81
11339;BME280;5724;42.684;23.252;2023-05-11T06:15:48;94615.06;;;8.83;88.36
11339;BME280;5724;42.684;23.252;2023-05-11T06:18:13;94608.84;;;8.83;88.48
11339;BME280;5724;42.684;23.252;2023-05-11T06:20:39;94620.53;;;8.83;88.08
11339;BME280;5724;42.684;23.252;2023-05-11T06:23:04;94624.38;;;8.82;89.00
11339;BME280;5724;42.684;23.252;2023-05-11T06:25:33;94615.63;;;8.77;88.16
11339;BME280;5724;42.684;23.252;2023-05-11T06:27:58;94625.19;;;8.83;87.54
11339;BME280;5724;42.684;23.252;2023-05-11T06:30:24;94626.19;;;8.66;87.78
11339;BME280;5724;42.684;23.252;2023-05-11T06:32:50;94629.84;;;8.82;87.79
11339;BME280;5724;42.684;23.252;2023-05-11T06:35:15;94629.25;;;8.77;88.58
11339;BME280;5724;42.684;23.252;2023-05-11T06:37:41;94624.28;;;8.79;87.77
11339;BME280;5724;42.684;23.252;2023-05-11T06:40:07;94608.59;;;8.76;88.54
11339;BME280;5724;42.684;23.252;2023-05-11T06:42:32;94623.13;;;8.68;88.03
11339;BME280;5724;42.684;23.252;2023-05-11T06:44:58;94629.34;;;8.68;87.96
11339;BME280;5724;42.684;23.252;2023-05-11T06:47:23;94619.84;;;8.62;87.62
11339;BME280;5724;42.684;23.252;2023-05-11T06:49:49;94631.06;;;8.85;87.47
11339;BME280;5724;42.684;23.252;2023-05-11T06:52:14;94623.03;;;8.88;87.77
11339;BME280;5724;42.684;23.252;2023-05-11T06:54:40;94625.28;;;8.86;87.15
11339;BME280;5724;42.684;23.252;2023-05-11T06:57:05;94612.94;;;8.89;87.20
11339;BME280;5724;42.684;23.252;2023-05-11T06:59:31;94619.16;;;9.02;87.26
11339;BME280;5724;42.684;23.252;2023-05-11T07:01:57;94634.03;;;9.04;86.11
11339;BME280;5724;42.684;23.252;2023-05-11T07:04:25;94623.13;;;9.04;86.76
11339;BME280;5724;42.684;23.252;2023-05-11T07:06:50;94613.00;;;9.05;86.31
11339;BME280;5724;42.684;23.252;2023-05-11T07:09:16;94627.44;;;9.05;87.20
11339;BME280;5724;42.684;23.252;2023-05-11T07:11:41;94640.38;;;9.21;86.08
11339;BME280;5724;42.684;23.252;2023-05-11T07:14:07;94626.41;;;9.22;86.42
11339;BME280;5724;42.684;23.252;2023-05-11T07:16:35;94637.84;;;9.40;85.12
11339;BME280;5724;42.684;23.252;2023-05-11T07:19:03;94648.50;;;9.45;84.99
11339;BME280;5724;42.684;23.252;2023-05-11T07:21:29;94641.00;;;9.54;84.35
11339;BME280;5724;42.684;23.252;2023-05-11T07:23:56;94634.03;;;9.69;83.85
11339;BME280;5724;42.684;23.252;2023-05-11T07:26:21;94623.34;;;9.76;83.11
11339;BME280;5724;42.684;23.252;2023-05-11T07:28:47;94641.63;;;9.75;83.34
11339;BME280;5724;42.684;23.252;2023-05-11T07:31:12;94648.00;;;10.08;82.61
11339;BME280;5724;42.684;23.252;2023-05-11T07:33:37;94631.69;;;10.23;82.16
11339;BME280;5724;42.684;23.252;2023-05-11T07:36:04;94640.09;;;10.18;80.89
11339;BME280;5724;42.684;23.252;2023-05-11T07:38:30;94648.44;;;10.38;81.13
11339;BME280;5724;42.684;23.252;2023-05-11T07:40:55;94652.59;;;10.47;79.47
11339;BME280;5724;42.684;23.252;2023-05-11T07:43:21;94638.88;;;10.44;78.55
11339;BME280;5724;42.684;23.252;2023-05-11T07:45:46;94642.03;;;10.46;80.59
11339;BME280;5724;42.684;23.252;2023-05-11T07:48:12;94653.41;;;10.48;78.92
11339;BME280;5724;42.684;23.252;2023-05-11T07:50:37;94643.81;;;10.70;79.67
11339;BME280;5724;42.684;23.252;2023-05-11T07:53:03;94634.34;;;10.51;78.42
11339;BME280;5724;42.684;23.252;2023-05-11T07:55:28;94650.59;;;10.60;77.21
11339;BME280;5724;42.684;23.252;2023-05-11T07:57:55;94659.88;;;10.71;77.80
11339;BME280;5724;42.684;23.252;2023-05-11T08:00:20;94652.16;;;10.61;78.31
11339;BME280;5724;42.684;23.252;2023-05-11T08:02:46;94646.44;;;10.50;78.01
11339;BME280;5724;42.684;23.252;2023-05-11T08:05:12;94656.00;;;10.72;77.92
11339;BME280;5724;42.684;23.252;2023-05-11T08:07:37;94657.94;;;11.03;77.13
11339;BME280;5724;42.684;23.252;2023-05-11T08:10:03;94664.63;;;11.06;74.75
11339;BME280;5724;42.684;23.252;2023-05-11T08:12:29;94649.38;;;11.05;74.71
11339;BME280;5724;42.684;23.252;2023-05-11T08:14:54;94660.47;;;11.12;75.34
11339;BME280;5724;42.684;23.252;2023-05-11T08:17:20;94666.56;;;11.05;74.96
11339;BME280;5724;42.684;23.252;2023-05-11T08:19:45;94652.81;;;11.02;73.71
11339;BME280;5724;42.684;23.252;2023-05-11T08:22:11;94647.78;;;11.04;72.56
11339;BME280;5724;42.684;23.252;2023-05-11T08:24:36;94641.44;;;10.84;73.06
11339;BME280;5724;42.684;23.252;2023-05-11T08:27:02;94657.66;;;10.77;74.33
11339;BME280;5724;42.684;23.252;2023-05-11T08:29:28;94657.22;;;11.06;73.56
11339;BME280;5724;42.684;23.252;2023-05-11T08:31:53;94654.28;;;11.31;73.45
11339;BME280;5724;42.684;23.252;2023-05-11T08:34:19;94670.78;;;11.34;72.01
11339;BME280;5724;42.684;23.252;2023-05-11T08:36:44;94669.19;;;11.49;72.54
11339;BME280;5724;42.684;23.252;2023-05-11T08:39:10;94660.97;;;11.33;72.56
11339;BME280;5724;42.684;23.252;2023-05-11T08:41:36;94664.16;;;11.35;72.88
11339;BME280;5724;42.684;23.252;2023-05-11T08:44:02;94663.88;;;11.40;74.43
11339;BME280;5724;42.684;23.252;2023-05-11T08:46:29;94670.28;;;11.48;72.82
11339;BME280;5724;42.684;23.252;2023-05-11T08:48:55;94671.50;;;11.66;73.04
11339;BME280;5724;42.684;23.252;2023-05-11T08:51:22;94663.81;;;11.72;71.66
11339;BME280;5724;42.684;23.252;2023-05-11T08:53:48;94652.34;;;11.66;71.16
11339;BME280;5724;42.684;23.252;2023-05-11T08:56:14;94647.28;;;11.49;71.29
11339;BME280;5724;42.684;23.252;2023-05-11T08:58:41;94643.25;;;11.62;70.92
11339;BME280;5724;42.684;23.252;2023-05-11T09:01:09;94650.09;;;11.53;71.31
11339;BME280;5724;42.684;23.252;2023-05-11T09:03:38;94649.00;;;11.57;71.55
11339;BME280;5724;42.684;23.252;2023-05-11T09:06:06;94652.09;;;11.56;70.88
11339;BME280;5724;42.684;23.252;2023-05-11T09:08:33;94651.88;;;11.45;71.67
11339;BME280;5724;42.684;23.252;2023-05-11T09:11:00;94640.72;;;11.54;71.86
11339;BME280;5724;42.684;23.252;2023-05-11T09:13:28;94643.63;;;11.61;71.29
11339;BME280;5724;42.684;23.252;2023-05-11T09:15:54;94640.53;;;11.62;71.79
11339;BME280;5724;42.684;23.252;2023-05-11T09:18:19;94636.97;;;11.78;71.28
11339;BME280;5724;42.684;23.252;2023-05-11T09:20:46;94643.38;;;11.85;70.69
11339;BME280;5724;42.684;23.252;2023-05-11T09:23:15;94645.69;;;11.83;71.11
11339;BME280;5724;42.684;23.252;2023-05-11T09:25:41;94656.03;;;11.74;71.97
11339;BME280;5724;42.684;23.252;2023-05-11T09:28:11;94655.50;;;11.84;71.29
11339;BME280;5724;42.684;23.252;2023-05-11T09:30:37;94652.19;;;11.94;70.63
11339;BME280;5724;42.684;23.252;2023-05-11T09:33:03;94632.31;;;11.97;71.36
11339;BME280;5724;42.684;23.252;2023-05-11T09:35:33;94648.00;;;12.00;71.22
11339;BME280;5724;42.684;23.252;2023-05-11T09:40:30;94608.63;;;11.70;71.81
11339;BME280;5724;42.684;23.252;2023-05-11T09:42:58;94640.66;;;12.24;70.77
11339;BME280;5724;42.684;23.252;2023-05-11T09:48:06;94638.63;;;12.21;71.70
11339;BME280;5724;42.684;23.252;2023-05-11T09:50:33;94639.44;;;12.02;71.46
11339;BME280;5724;42.684;23.252;2023-05-11T09:52:59;94637.50;;;12.45;71.80
11339;BME280;5724;42.684;23.252;2023-05-11T09:55:24;94637.19;;;12.46;71.79
11339;BME280;5724;42.684;23.252;2023-05-11T09:57:54;94633.69;;;12.49;71.06
11339;BME280;5724;42.684;23.252;2023-05-11T10:00:20;94623.56;;;12.53;70.04
11339;BME280;5724;42.684;23.252;2023-05-11T10:02:58;94637.81;;;12.40;70.19
11339;BME280;5724;42.684;23.252;2023-05-11T10:05:24;94613.78;;;12.52;70.46
11339;BME280;5724;42.684;23.252;2023-05-11T10:07:57;94618.56;;;12.55;70.64
11339;BME280;5724;42.684;23.252;2023-05-11T10:10:25;94620.38;;;12.71;71.98
11339;BME280;5724;42.684;23.252;2023-05-11T10:12:52;94614.47;;;12.69;71.90
11339;BME280;5724;42.684;23.252;2023-05-11T10:15:18;94613.72;;;12.72;71.98
11339;BME280;5724;42.684;23.252;2023-05-11T10:17:53;94602.72;;;12.68;72.25
11339;BME280;5724;42.684;23.252;2023-05-11T10:20:19;94593.38;;;12.73;70.67
11339;BME280;5724;42.684;23.252;2023-05-11T10:22:45;94594.66;;;12.56;70.36
11339;BME280;5724;42.684;23.252;2023-05-11T10:25:11;94601.03;;;12.64;71.72
11339;BME280;5724;42.684;23.252;2023-05-11T10:27:37;94595.97;;;12.43;71.97
11339;BME280;5724;42.684;23.252;2023-05-11T10:30:05;94600.94;;;12.56;71.06
11339;BME280;5724;42.684;23.252;2023-05-11T10:32:35;94596.34;;;12.41;71.46
11339;BME280;5724;42.684;23.252;2023-05-11T10:35:02;94593.38;;;12.27;71.00
11339;BME280;5724;42.684;23.252;2023-05-11T10:37:29;94579.53;;;12.43;70.47
11339;BME280;5724;42.684;23.252;2023-05-11T10:39:56;94588.56;;;12.43;71.52
11339;BME280;5724;42.684;23.252;2023-05-11T10:44:59;94590.13;;;12.90;71.47
11339;BME280;5724;42.684;23.252;2023-05-11T10:50:31;94597.53;;;12.86;71.58
11339;BME280;5724;42.684;23.252;2023-05-11T10:56:02;94598.91;;;12.53;71.70
11339;BME280;5724;42.684;23.252;2023-05-11T11:01:38;94589.53;;;12.54;70.29
11339;BME280;5724;42.684;23.252;2023-05-11T11:04:06;94592.59;;;12.72;70.79
11339;BME280;5724;42.684;23.252;2023-05-11T11:06:34;94593.50;;;12.80;70.52
11339;BME280;5724;42.684;23.252;2023-05-11T11:13:56;94596.81;;;12.66;70.86
11339;BME280;5724;42.684;23.252;2023-05-11T11:16:22;94590.75;;;12.80;70.26
11339;BME280;5724;42.684;23.252;2023-05-11T11:18:49;94598.00;;;12.92;69.64
11339;BME280;5724;42.684;23.252;2023-05-11T11:21:37;94582.16;;;13.04;70.00
11339;BME280;5724;42.684;23.252;2023-05-11T11:24:03;94589.41;;;12.93;68.30
11339;BME280;5724;42.684;23.252;2023-05-11T11:26:46;94581.78;;;12.83;68.99
11339;BME280;5724;42.684;23.252;2023-05-11T11:29:13;94573.84;;;12.74;69.69
11339;BME280;5724;42.684;23.252;2023-05-11T11:31:39;94579.06;;;12.60;69.83
11339;BME280;5724;42.684;23.252;2023-05-11T11:39:46;94577.34;;;12.98;69.01
11339;BME280;5724;42.684;23.252;2023-05-11T11:42:17;94575.97;;;13.11;67.99
11339;BME280;5724;42.684;23.252;2023-05-11T11:44:44;94579.00;;;13.29;68.46
11339;BME280;5724;42.684;23.252;2023-05-11T11:47:19;94578.22;;;13.28;68.95
11339;BME280;5724;42.684;23.252;2023-05-11T11:49:51;94570.72;;;13.25;67.93
11339;BME280;5724;42.684;23.252;2023-05-11T11:54:53;94569.53;;;13.00;67.33
11339;BME280;5724;42.684;23.252;2023-05-11T12:00:04;94575.38;;;12.98;68.74
11339;BME280;5724;42.684;23.252;2023-05-11T12:02:32;94564.28;;;12.91;68.41
11339;BME280;5724;42.684;23.252;2023-05-11T12:07:33;94563.59;;;13.21;68.38
11339;BME280;5724;42.684;23.252;2023-05-11T12:10:02;94568.44;;;12.81;68.69
11339;BME280;5724;42.684;23.252;2023-05-11T12:12:29;94575.19;;;12.84;70.30
11339;BME280;5724;42.684;23.252;2023-05-11T12:14:55;94564.31;;;12.68;68.76
11339;BME280;5724;42.684;23.252;2023-05-11T12:17:26;94559.50;;;12.61;69.50
11339;BME280;5724;42.684;23.252;2023-05-11T12:19:54;94565.84;;;12.66;70.67
11339;BME280;5724;42.684;23.252;2023-05-11T12:22:35;94540.16;;;12.51;70.80
11339;BME280;5724;42.684;23.252;2023-05-11T12:25:04;94562.50;;;12.76;70.56
11339;BME280;5724;42.684;23.252;2023-05-11T12:27:29;94551.53;;;12.76;70.66
11339;BME280;5724;42.684;23.252;2023-05-11T12:29:55;94548.31;;;12.47;69.44
11339;BME280;5724;42.684;23.252;2023-05-11T12:32:29;94555.56;;;12.59;69.70
11339;BME280;5724;42.684;23.252;2023-05-11T12:37:25;94536.56;;;12.47;70.42
11339;BME280;5724;42.684;23.252;2023-05-11T12:39:54;94526.31;;;12.67;70.40
11339;BME280;5724;42.684;23.252;2023-05-11T12:42:20;94535.41;;;12.48;70.57
11339;BME280;5724;42.684;23.252;2023-05-11T12:44:46;94531.97;;;12.54;71.02
11339;BME280;5724;42.684;23.252;2023-05-11T12:47:12;94541.81;;;12.55;71.07
11339;BME280;5724;42.684;23.252;2023-05-11T12:49:40;94539.28;;;12.24;72.21
11339;BME280;5724;42.684;23.252;2023-05-11T12:52:06;94532.09;;;12.16;71.71
11339;BME280;5724;42.684;23.252;2023-05-11T12:54:37;94523.03;;;12.12;72.33
11339;BME280;5724;42.684;23.252;2023-05-11T12:57:04;94531.63;;;12.10;71.90
11339;BME280;5724;42.684;23.252;2023-05-11T13:02:16;94507.69;;;12.07;73.03
11339;BME280;5724;42.684;23.252;2023-05-11T13:04:43;94524.19;;;12.33;72.58
11339;BME280;5724;42.684;23.252;2023-05-11T13:07:10;94519.75;;;12.25;72.84
11339;BME280;5724;42.684;23.252;2023-05-11T13:09:36;94521.34;;;12.26;72.08
11339;BME280;5724;42.684;23.252;2023-05-11T13:12:12;94507.19;;;12.24;72.00
11339;BME280;5724;42.684;23.252;2023-05-11T13:14:38;94504.97;;;12.30;72.44
11339;BME280;5724;42.684;23.252;2023-05-11T13:17:04;94481.81;;;12.04;72.04
11339;BME280;5724;42.684;23.252;2023-05-11T13:19:30;94510.53;;;12.14;73.40
11339;BME280;5724;42.684;23.252;2023-05-11T13:21:57;94501.50;;;12.10;74.01
11339;BME280;5724;42.684;23.252;2023-05-11T13:24:23;94510.72;;;12.25;72.93
11339;BME280;5724;42.684;23.252;2023-05-11T13:26:49;94505.94;;;12.18;73.95
11339;BME280;5724;42.684;23.252;2023-05-11T13:29:18;94507.09;;;12.17;73.78
11339;BME280;5724;42.684;23.252;2023-05-11T13:31:47;94499.22;;;12.16;74.08
11339;BME280;5724;42.684;23.252;2023-05-11T13:34:13;94498.69;;;12.07;73.64
11339;BME280;5724;42.684;23.252;2023-05-11T13:36:39;94500.94;;;12.01;73.83
11339;BME280;5724;42.684;23.252;2023-05-11T13:39:05;94496.81;;;12.11;73.56
11339;BME280;5724;42.684;23.252;2023-05-11T13:41:31;94507.47;;;11.96;73.94
11339;BME280;5724;42.684;23.252;2023-05-11T13:43:58;94501.94;;;11.93;74.16
11339;BME280;5724;42.684;23.252;2023-05-11T13:46:23;94481.38;;;11.80;74.34
11339;BME280;5724;42.684;23.252;2023-05-11T13:48:49;94489.94;;;11.78;74.93
11339;BME280;5724;42.684;23.252;2023-05-11T13:51:15;94503.34;;;11.83;74.92
11339;BME280;5724;42.684;23.252;2023-05-11T13:53:40;94491.59;;;11.83;75.31
11339;BME280;5724;42.684;23.252;2023-05-11T13:56:06;94492.66;;;11.78;75.46